• Join FlightAware (Why Join?)
  • Login
  • US Flag 
01:14AM EDT


 

Airport Tracker/Info


-or-


 

Live Flight TrackerFlight Track Log ✈ AFL150 ✈ 14-Mar-2014 ✈ UUEE / SVO - MUHA / HAV

Flight Track Log - Related Links

Times and Time Zones

All times are in EDT time to prevent confusion due to time zone crossing. See the AFL150 flight status page for this flight to view local times or setup timezone preferences in your user account.

Time Position Orientation Groundspeed Altitude Reporting Facility
EDT Latitude Longitude Course Direction KTS MPH feet Rate Location/Type
05:45AM 56.0913 37.0678 307° West  Level Estimated
05:46AM 56.1552 36.9127 307° West  Level Estimated
05:47AM 56.2189 36.7571 306° West  Level Estimated
05:48AM 56.2824 36.6009 306° West  Level Estimated
05:49AM 56.3458 36.4443 306° West  Level Estimated
05:50AM 56.4089 36.2871 306° West  Level Estimated
05:51AM 56.4718 36.1294 306° West  Level Estimated
05:52AM 56.5345 35.9711 306° West  Level Estimated
05:53AM 56.5971 35.8124 306° West  Level Estimated
05:54AM 56.6594 35.6531 305° West  Level Estimated
05:55AM 56.7215 35.4933 305° West  Level Estimated
05:56AM 56.7835 35.3330 305° West  Level Estimated
05:57AM 56.8452 35.1721 305° West  Level Estimated
05:58AM 56.9067 35.0107 305° West  Level Estimated
05:59AM 56.9680 34.8488 305° West  Level Estimated
06:00AM 57.0290 34.6863 305° West  Level Estimated
06:01AM 57.0899 34.5233 305° West  Level Estimated
06:02AM 57.1506 34.3598 304° West  Level Estimated
06:03AM 57.2110 34.1957 304° West  Level Estimated
06:04AM 57.2713 34.0311 304° West  Level Estimated
06:05AM 57.3313 33.8660 304° West  Level Estimated
06:06AM 57.3911 33.7003 304° West  Level Estimated
06:07AM 57.4478 33.5422 304° West  Level Estimated
06:08AM 57.5042 33.3836 304° West  Level Estimated
06:09AM 57.5605 33.2245 303° West  Level Estimated
06:10AM 57.6166 33.0649 303° West  Level Estimated
06:11AM 57.6725 32.9049 303° West  Level Estimated
06:12AM 57.7282 32.7443 303° West  Level Estimated
06:13AM 57.7836 32.5832 303° West  Level Estimated
06:14AM 57.8389 32.4217 303° West  Level Estimated
06:15AM 57.8940 32.2596 303° West  Level Estimated
06:16AM 57.9488 32.0971 303° West  Level Estimated
06:17AM 58.0035 31.9341 302° West  Level Estimated
06:18AM 58.0579 31.7705 302° West  Level Estimated
06:19AM 58.1121 31.6065 302° West  Level Estimated
06:20AM 58.1662 31.4420 302° West  Level Estimated
06:21AM 58.2200 31.2769 302° West  Level Estimated
06:22AM 58.2736 31.1114 302° West  Level Estimated
06:23AM 58.3270 30.9454 302° West  Level Estimated
06:24AM 58.3801 30.7788 301° West  Level Estimated
06:25AM 58.4330 30.6118 301° West  Level Estimated
06:26AM 58.4858 30.4443 301° West  Level Estimated
06:27AM 58.5383 30.2762 301° West  Level Estimated
06:28AM 58.5906 30.1077 301° West  Level Estimated
06:29AM 58.6427 29.9386 301° West  Level Estimated
06:30AM 58.6945 29.7691 301° West  Level Estimated
06:31AM 58.7461 29.5990 300° West  Level Estimated
06:32AM 58.7975 29.4285 300° West  Level Estimated
06:33AM 58.8487 29.2574 300° West  Level Estimated
06:34AM 58.8996 29.0858 300° West  Level Estimated
06:35AM 58.9504 28.9137 300° West  Level Estimated
06:36AM 59.0008 28.7412 300° West  Level Estimated
06:37AM 59.0511 28.5681 300° West  Level Estimated
06:38AM 59.1011 28.3945 299° West  Level Estimated
06:39AM 59.1509 28.2204 299° West  Level Estimated
06:40AM 59.2005 28.0458 299° West  Level Estimated
06:41AM 59.2498 27.8707 299° West  Level Estimated
06:42AM 59.2989 27.6951 299° West  Level Estimated
06:43AM 59.3477 27.5189 299° West  Level Estimated
06:44AM 59.3964 27.3423 298° West  Level Estimated
06:45AM 59.4447 27.1652 298° West  Level Estimated
06:46AM 59.4929 26.9875 298° West  Level Estimated
06:47AM 59.5408 26.8094 298° West  Level Estimated
06:48AM 59.5884 26.6307 298° West  Level Estimated
06:49AM 59.6358 26.4516 298° West  Level Estimated
06:50AM 59.6830 26.2719 298° West  Level Estimated
06:51AM 59.7299 26.0917 297° West  Level Estimated
06:52AM 59.7766 25.9111 297° West  Level Estimated
06:53AM 59.8230 25.7299 297° West  Level Estimated
06:54AM 59.8691 25.5482 297° West  Level Estimated
06:55AM 59.9151 25.3660 297° West  Level Estimated
06:56AM 59.9607 25.1833 297° West  Level Estimated
06:57AM 60.0061 25.0001 296° West  Level Estimated
06:58AM 60.0513 24.8164 296° West  Level Estimated
06:59AM 60.0962 24.6322 296° West  Level Estimated
07:00AM 60.1409 24.4475 296° West  Level Estimated
07:01AM 60.1853 24.2623 296° West  Level Estimated
07:02AM 60.2294 24.0766 296° West  Level Estimated
07:03AM 60.2733 23.8904 295° West  Level Estimated
07:04AM 60.3169 23.7037 295° West  Level Estimated
07:05AM 60.3602 23.5165 295° West  Level Estimated
07:06AM 60.4033 23.3288 295° West  Level Estimated
07:07AM 60.4461 23.1406 295° West  Level Estimated
07:08AM 60.4887 22.9520 295° West  Level Estimated
07:09AM 60.5310 22.7628 295° West  Level Estimated
07:10AM 60.5730 22.5731 294° West  Level Estimated
07:11AM 60.6147 22.3829 294° West  Level Estimated
07:12AM 60.6562 22.1923 294° West  Level Estimated
07:13AM 60.6974 22.0012 294° West  Level Estimated
07:13AM 61.4105 22.4239 314° West 390 449 36,000  Level FlightAware ADS-B (ESKB)
07:14AM 60.7383 21.8095 294° West  Level Estimated
07:15AM 61.5225 22.1827 314° West 385 443 36,000  Level FlightAware ADS-B (ESKB)
07:16AM 61.5738 22.0719 314° West 386 444 36,000  Level FlightAware ADS-B (ESKB)
07:16AM 61.6161 21.9797 314° West 385 443 36,000  Level FlightAware ADS-B (ESKB)
07:17AM 61.6664 21.8700 314° West 374 430 36,000  Level FlightAware ADS-B (ESKB)
07:17AM 61.7157 21.7618 314° West 372 428 36,000  Level FlightAware ADS-B (ESKB)
07:18AM 61.7641 21.6545 314° West 372 428 36,000  Level FlightAware ADS-B (ESKB)
07:19AM 61.8108 21.5506 314° West 376 433 36,000  Level FlightAware ADS-B (ESKB)
07:21AM 61.8892 21.2379 298° West  Level FlightAware Approximate
07:22AM 61.9368 21.0457 298° West  Level FlightAware Approximate
07:23AM 61.9842 20.8529 298° West  Level FlightAware Approximate
07:24AM 62.0313 20.6594 298° West  Level FlightAware Approximate
07:25AM 62.0782 20.4654 297° West  Level FlightAware Approximate
07:26AM 62.1247 20.2708 297° West  Level FlightAware Approximate
07:27AM 62.1710 20.0756 297° West  Level FlightAware Approximate
07:28AM 62.2170 19.8798 297° West  Level FlightAware Approximate
07:29AM 62.2628 19.6833 297° West  Level FlightAware Approximate
07:30AM 62.3082 19.4863 296° West  Level FlightAware Approximate
07:31AM 62.3534 19.2887 296° West  Level FlightAware Approximate
07:32AM 62.3983 19.0905 296° West  Level FlightAware Approximate
07:33AM 62.4429 18.8918 296° West  Level FlightAware Approximate
07:34AM 62.4873 18.6924 296° West  Level FlightAware Approximate
07:35AM 62.5313 18.4924 296° West  Level FlightAware Approximate
07:36AM 62.5751 18.2918 295° West  Level FlightAware Approximate
07:37AM 62.6185 18.0907 295° West  Level FlightAware Approximate
07:38AM 62.6617 17.8890 295° West  Level FlightAware Approximate
07:39AM 62.7046 17.6866 295° West  Level FlightAware Approximate
07:40AM 62.7472 17.4837 295° West  Level FlightAware Approximate
07:41AM 62.7895 17.2802 295° West  Level FlightAware Approximate
07:42AM 62.8315 17.0761 294° West  Level FlightAware Approximate
07:43AM 62.8732 16.8715 294° West  Level FlightAware Approximate
07:44AM 62.9147 16.6662 294° West  Level FlightAware Approximate
07:45AM 62.9558 16.4604 294° West  Level FlightAware Approximate
07:46AM 62.9966 16.2540 294° West  Level FlightAware Approximate
07:47AM 63.0371 16.0470 293° West  Level FlightAware Approximate
07:48AM 63.0773 15.8395 293° West  Level FlightAware Approximate
07:49AM 63.1172 15.6314 293° West  Level FlightAware Approximate
07:50AM 63.1568 15.4227 293° West  Level FlightAware Approximate
07:51AM 63.1962 15.2134 293° West  Level FlightAware Approximate
07:52AM 63.2351 15.0036 293° West  Level FlightAware Approximate
07:53AM 63.2738 14.7932 292° West  Level FlightAware Approximate
07:54AM 63.3122 14.5822 292° West  Level FlightAware Approximate
07:55AM 63.3502 14.3707 292° West  Level FlightAware Approximate
07:56AM 63.3880 14.1587 292° West  Level FlightAware Approximate
07:57AM 63.4254 13.9460 292° West  Level FlightAware Approximate
07:58AM 63.4625 13.7328 291° West  Level FlightAware Approximate
07:59AM 63.4993 13.5191 291° West  Level FlightAware Approximate
08:00AM 63.5358 13.3048 291° West  Level FlightAware Approximate
08:01AM 63.5719 13.0900 291° West  Level FlightAware Approximate
08:02AM 63.6078 12.8746 291° West  Level FlightAware Approximate
08:03AM 63.6433 12.6587 290° West  Level FlightAware Approximate
08:04AM 63.6785 12.4422 290° West  Level FlightAware Approximate
08:05AM 63.7133 12.2253 290° West  Level FlightAware Approximate
08:06AM 63.7478 12.0077 290° West  Level FlightAware Approximate
08:07AM 63.7821 11.7897 290° West  Level FlightAware Approximate
08:08AM 63.8159 11.5711 289° West  Level FlightAware Approximate
08:09AM 63.8495 11.3520 289° West  Level FlightAware Approximate
08:10AM 63.8827 11.1324 289° West  Level FlightAware Approximate
08:11AM 63.9156 10.9122 289° West  Level FlightAware Approximate
08:12AM 63.9481 10.6916 289° West  Level FlightAware Approximate
08:13AM 63.9803 10.4704 288° West  Level FlightAware Approximate
08:14AM 64.0122 10.2487 288° West  Level FlightAware Approximate
08:15AM 64.0437 10.0266 288° West  Level FlightAware Approximate
08:16AM 64.0749 9.8039 288° West  Level FlightAware Approximate
08:17AM 64.1057 9.5807 288° West  Level FlightAware Approximate
08:18AM 64.1362 9.3571 287° West  Level FlightAware Approximate
08:19AM 64.1664 9.1329 287° West  Level FlightAware Approximate
08:20AM 64.1962 8.9083 287° West  Level FlightAware Approximate
08:21AM 64.2257 8.6832 287° West  Level FlightAware Approximate
08:22AM 64.2548 8.4576 287° West  Level FlightAware Approximate
08:23AM 64.2836 8.2315 286° West  Level FlightAware Approximate
08:24AM 64.3120 8.0049 286° West  Level FlightAware Approximate
08:25AM 64.3401 7.7779 286° West  Level FlightAware Approximate
08:26AM 64.3678 7.5505 286° West  Level FlightAware Approximate
08:27AM 64.3952 7.3226 286° West  Level FlightAware Approximate
08:28AM 64.4222 7.0942 285° West  Level FlightAware Approximate
08:29AM 64.4489 6.8654 285° West  Level FlightAware Approximate
08:30AM 64.4752 6.6361 285° West  Level FlightAware Approximate
08:31AM 64.5011 6.4064 285° West  Level FlightAware Approximate
08:32AM 64.5267 6.1763 285° West  Level FlightAware Approximate
08:33AM 64.5519 5.9457 284° West  Level FlightAware Approximate
08:34AM 64.5768 5.7147 284° West  Level FlightAware Approximate
08:35AM 64.6013 5.4833 284° West  Level FlightAware Approximate
08:36AM 64.6255 5.2515 284° West  Level FlightAware Approximate
08:37AM 64.6492 5.0192 284° West  Level FlightAware Approximate
08:38AM 64.6727 4.7866 283° West  Level FlightAware Approximate
08:39AM 64.6957 4.5536 283° West  Level FlightAware Approximate
08:40AM 64.7184 4.3202 283° West  Level FlightAware Approximate
08:41AM 64.7407 4.0863 283° West  Level FlightAware Approximate
08:42AM 64.7627 3.8521 282° West  Level FlightAware Approximate
08:43AM 64.7842 3.6176 282° West  Level FlightAware Approximate
08:44AM 64.8054 3.3826 282° West  Level FlightAware Approximate
08:45AM 64.8263 3.1473 282° West  Level FlightAware Approximate
08:46AM 64.8467 2.9116 282° West  Level FlightAware Approximate
08:47AM 64.8668 2.6756 281° West  Level FlightAware Approximate
08:48AM 64.8865 2.4392 281° West  Level FlightAware Approximate
08:49AM 64.9059 2.2025 281° West  Level FlightAware Approximate
08:50AM 64.9249 1.9654 281° West  Level FlightAware Approximate
08:51AM 64.9434 1.7280 281° West  Level FlightAware Approximate
08:52AM 64.9616 1.4903 280° West  Level FlightAware Approximate
08:53AM 64.9795 1.2522 280° West  Level FlightAware Approximate
08:54AM 64.9969 1.0139 280° West  Level FlightAware Approximate
08:55AM 65.0140 0.7752 280° West  Level FlightAware Approximate
08:56AM 65.0307 0.5363 279° West  Level FlightAware Approximate
08:57AM 65.0470 0.2970 279° West  Level FlightAware Approximate
08:58AM 65.0629 0.0574 279° West  Level FlightAware Approximate
08:59AM 65.0785 -0.1824 279° West  Level FlightAware Approximate
09:00AM 65.0936 -0.4225 279° West  Level FlightAware Approximate
09:01AM 65.1084 -0.6629 278° West  Level FlightAware Approximate
09:02AM 65.1228 -0.9035 278° West  Level FlightAware Approximate
09:03AM 65.1368 -1.1444 278° West  Level FlightAware Approximate
09:04AM 65.1504 -1.3856 278° West  Level FlightAware Approximate
09:05AM 65.1636 -1.6270 278° West  Level FlightAware Approximate
09:06AM 65.1764 -1.8686 277° West  Level FlightAware Approximate
09:07AM 65.1889 -2.1105 277° West  Level FlightAware Approximate
09:08AM 65.2010 -2.3526 277° West  Level FlightAware Approximate
09:09AM 65.2127 -2.5949 277° West  Level FlightAware Approximate
09:10AM 65.2240 -2.8374 276° West  Level FlightAware Approximate
09:11AM 65.2350 -3.0801 276° West  Level FlightAware Approximate
09:12AM 65.2455 -3.3230 276° West  Level FlightAware Approximate
09:13AM 65.2557 -3.5661 276° West  Level FlightAware Approximate
09:14AM 65.2655 -3.8094 276° West  Level FlightAware Approximate
09:15AM 65.2748 -4.0528 275° West  Level FlightAware Approximate
09:16AM 65.2838 -4.2965 275° West  Level FlightAware Approximate
09:17AM 65.2924 -4.5402 275° West  Level FlightAware Approximate
09:18AM 65.3006 -4.7842 275° West  Level FlightAware Approximate
09:19AM 65.3084 -5.0283 274° West  Level FlightAware Approximate
09:20AM 65.3158 -5.2725 274° West  Level FlightAware Approximate
09:21AM 65.3229 -5.5169 274° West  Level FlightAware Approximate
09:22AM 65.3295 -5.7614 274° West  Level FlightAware Approximate
09:23AM 65.3357 -6.0060 274° West  Level FlightAware Approximate
09:24AM 65.3415 -6.2507 273° West  Level FlightAware Approximate
09:25AM 65.3470 -6.4956 273° West  Level FlightAware Approximate
09:26AM 65.3520 -6.7405 273° West  Level FlightAware Approximate
09:27AM 65.3566 -6.9855 273° West  Level FlightAware Approximate
09:28AM 65.3609 -7.2306 272° West  Level FlightAware Approximate
09:29AM 65.3647 -7.4758 272° West  Level FlightAware Approximate
09:30AM 65.3682 -7.7210 272° West  Level FlightAware Approximate
09:31AM 65.3712 -7.9663 272° West  Level FlightAware Approximate
09:32AM 65.3739 -8.2117 272° West  Level FlightAware Approximate
09:33AM 65.3761 -8.4571 271° West  Level FlightAware Approximate
09:34AM 65.3780 -8.7025 271° West  Level FlightAware Approximate
09:35AM 65.3794 -8.9480 271° West  Level FlightAware Approximate
09:36AM 65.3805 -9.1935 271° West  Level FlightAware Approximate
09:37AM 65.3811 -9.4390 270° West  Level FlightAware Approximate
09:38AM 65.3814 -9.6845 270° West  Level FlightAware Approximate
09:39AM 65.3813 -9.9300 270° West  Level FlightAware Approximate
09:40AM 65.3807 -10.1755 270° West  Level FlightAware Approximate
09:41AM 65.3798 -10.4210 270° West  Level FlightAware Approximate
09:42AM 65.3785 -10.6665 269° West  Level FlightAware Approximate
09:43AM 65.3767 -10.9120 269° West  Level FlightAware Approximate
09:44AM 65.3746 -11.1574 269° West  Level FlightAware Approximate
09:45AM 65.3721 -11.4028 269° West  Level FlightAware Approximate
09:46AM 65.3691 -11.6481 268° West  Level FlightAware Approximate
09:47AM 65.3658 -11.8933 268° West  Level FlightAware Approximate
09:48AM 65.3620 -12.1385 268° West  Level FlightAware Approximate
09:49AM 65.3577 -12.3836 268° West  Level FlightAware Approximate
09:50AM 65.3531 -12.6287 268° West  Level FlightAware Approximate
09:51AM 65.3480 -12.8736 267° West  Level FlightAware Approximate
09:52AM 65.3426 -13.1184 267° West  Level FlightAware Approximate
09:53AM 65.3368 -13.3632 267° West  Level FlightAware Approximate
09:54AM 65.3306 -13.6078 267° West  Level FlightAware Approximate
09:55AM 65.3239 -13.8523 266° West  Level FlightAware Approximate
09:56AM 65.3169 -14.0967 266° West  Level FlightAware Approximate
09:57AM 65.3095 -14.3409 266° West  Level FlightAware Approximate
09:58AM 65.3017 -14.5850 266° West  Level FlightAware Approximate
09:59AM 65.2935 -14.8290 266° West  Level FlightAware Approximate
10:00AM 65.2849 -15.0728 265° West  Level FlightAware Approximate
10:01AM 65.2759 -15.3164 265° West  Level FlightAware Approximate
10:02AM 65.2666 -15.5599 265° West  Level FlightAware Approximate
10:03AM 65.2568 -15.8032 265° West  Level FlightAware Approximate
10:04AM 65.2466 -16.0463 264° West  Level FlightAware Approximate
10:05AM 65.2361 -16.2892 264° West  Level FlightAware Approximate
10:06AM 65.2251 -16.5319 264° West  Level FlightAware Approximate
10:07AM 65.2138 -16.7744 264° West  Level FlightAware Approximate
10:08AM 65.2020 -17.0167 264° West  Level FlightAware Approximate
10:09AM 65.1899 -17.2588 263° West  Level FlightAware Approximate
10:10AM 65.1774 -17.5007 263° West  Level FlightAware Approximate
10:11AM 65.1645 -17.7423 263° West  Level FlightAware Approximate
10:12AM 65.1512 -17.9837 263° West  Level FlightAware Approximate
10:13AM 65.1376 -18.2248 262° West  Level FlightAware Approximate
10:14AM 65.1235 -18.4657 262° West  Level FlightAware Approximate
10:15AM 65.1091 -18.7063 262° West  Level FlightAware Approximate
10:16AM 65.0942 -18.9467 262° West  Level FlightAware Approximate
10:17AM 65.0790 -19.1868 262° West  Level FlightAware Approximate
10:18AM 65.0634 -19.4266 261° West  Level FlightAware Approximate
10:19AM 65.0474 -19.6662 261° West  Level FlightAware Approximate
10:20AM 65.0311 -19.9054 261° West  Level FlightAware Approximate
10:21AM 65.0143 -20.1444 261° West  Level FlightAware Approximate
10:22AM 64.9972 -20.3830 260° West  Level FlightAware Approximate
10:23AM 64.9797 -20.6213 260° West  Level FlightAware Approximate
10:24AM 64.9618 -20.8594 260° West  Level FlightAware Approximate
10:25AM 64.9435 -21.0971 260° West  Level FlightAware Approximate
10:26AM 64.9249 -21.3344 260° West  Level FlightAware Approximate
10:27AM 64.9059 -21.5715 259° West  Level FlightAware Approximate
10:28AM 64.8865 -21.8082 259° West  Level FlightAware Approximate
10:29AM 64.8667 -22.0445 259° West  Level FlightAware Approximate
10:30AM 64.8465 -22.2805 259° West  Level FlightAware Approximate
10:31AM 64.8260 -22.5162 259° West  Level FlightAware Approximate
10:32AM 64.8051 -22.7515 258° West  Level FlightAware Approximate
10:33AM 64.7839 -22.9864 258° West  Level FlightAware Approximate
10:34AM 64.7622 -23.2209 258° West  Level FlightAware Approximate
10:35AM 64.7402 -23.4551 258° West  Level FlightAware Approximate
10:36AM 64.7178 -23.6889 257° West  Level FlightAware Approximate
10:37AM 64.6951 -23.9223 257° West  Level FlightAware Approximate
10:38AM 64.6720 -24.1553 257° West  Level FlightAware Approximate
10:39AM 64.6485 -24.3878 257° West  Level FlightAware Approximate
10:40AM 64.6247 -24.6201 257° West  Level FlightAware Approximate
10:41AM 64.6005 -24.8518 256° West  Level FlightAware Approximate
10:42AM 64.5759 -25.0832 256° West  Level FlightAware Approximate
10:43AM 64.5510 -25.3141 256° West  Level FlightAware Approximate
10:44AM 64.5257 -25.5447 256° West  Level FlightAware Approximate
10:45AM 64.5001 -25.7748 256° West  Level FlightAware Approximate
10:46AM 64.4741 -26.0044 255° West  Level FlightAware Approximate
10:47AM 64.4477 -26.2336 255° West  Level FlightAware Approximate
10:48AM 64.4210 -26.4624 255° West  Level FlightAware Approximate
10:49AM 64.3939 -26.6907 255° West  Level FlightAware Approximate
10:50AM 64.3665 -26.9186 255° West  Level FlightAware Approximate
10:51AM 64.3387 -27.1460 254° West  Level FlightAware Approximate
10:52AM 64.3105 -27.3730 254° West  Level FlightAware Approximate
10:53AM 64.2821 -27.5995 254° West  Level FlightAware Approximate
10:54AM 64.2532 -27.8255 254° West  Level FlightAware Approximate
10:55AM 64.2241 -28.0510 254° West  Level FlightAware Approximate
10:56AM 64.1945 -28.2761 253° West  Level FlightAware Approximate
10:57AM 64.1647 -28.5007 253° West  Level FlightAware Approximate
10:58AM 64.1344 -28.7248 253° West  Level FlightAware Approximate
10:59AM 64.1039 -28.9484 253° West  Level FlightAware Approximate
11:00AM 64.0730 -29.1715 253° West  Level FlightAware Approximate
11:01AM 64.0417 -29.3941 252° West  Level FlightAware Approximate
11:02AM 64.0101 -29.6163 252° West  Level FlightAware Approximate
11:03AM 63.9782 -29.8379 252° West  Level FlightAware Approximate
11:04AM 63.9460 -30.0590 252° West  Level FlightAware Approximate
11:05AM 63.9134 -30.2796 252° West  Level FlightAware Approximate
11:06AM 63.8805 -30.4996 251° West  Level FlightAware Approximate
11:07AM 63.8472 -30.7192 251° West  Level FlightAware Approximate
11:08AM 63.8136 -30.9383 251° West  Level FlightAware Approximate
11:09AM 63.7797 -31.1568 251° West  Level FlightAware Approximate
11:10AM 63.7454 -31.3748 251° West  Level FlightAware Approximate
11:11AM 63.7108 -31.5922 250° West  Level FlightAware Approximate
11:12AM 63.6759 -31.8092 250° West  Level FlightAware Approximate
11:13AM 63.6407 -32.0255 250° West  Level FlightAware Approximate
11:14AM 63.6051 -32.2414 250° West  Level FlightAware Approximate
11:15AM 63.5692 -32.4567 250° West  Level FlightAware Approximate
11:16AM 63.5330 -32.6715 249° West  Level FlightAware Approximate
11:17AM 63.4965 -32.8857 249° West  Level FlightAware Approximate
11:18AM 63.4597 -33.0993 249° West  Level FlightAware Approximate
11:19AM 63.4225 -33.3125 249° West  Level FlightAware Approximate
11:20AM 63.3850 -33.5250 249° West  Level FlightAware Approximate
11:21AM 63.3472 -33.7370 248° West  Level FlightAware Approximate
11:22AM 63.3091 -33.9485 248° West  Level FlightAware Approximate
11:23AM 63.2707 -34.1594 248° West  Level FlightAware Approximate
11:24AM 63.2320 -34.3697 248° West  Level FlightAware Approximate
11:25AM 63.1929 -34.5794 248° West  Level FlightAware Approximate
11:26AM 63.1536 -34.7886 247° West  Level FlightAware Approximate
11:27AM 63.1139 -34.9973 247° West  Level FlightAware Approximate
11:28AM 63.0740 -35.2053 247° West  Level FlightAware Approximate
11:29AM 63.0337 -35.4128 247° West  Level FlightAware Approximate
11:30AM 62.9931 -35.6197 247° West  Level FlightAware Approximate
11:31AM 62.9523 -35.8260 247° West  Level FlightAware Approximate
11:32AM 62.9111 -36.0318 246° West  Level FlightAware Approximate
11:33AM 62.8696 -36.2369 246° West  Level FlightAware Approximate
11:34AM 62.8279 -36.4415 246° West  Level FlightAware Approximate
11:35AM 62.7858 -36.6455 246° West  Level FlightAware Approximate
11:36AM 62.7434 -36.8489 246° West  Level FlightAware Approximate
11:37AM 62.7007 -37.0517 245° Southwest  Level FlightAware Approximate
11:38AM 62.6577 -37.2539 245° Southwest  Level FlightAware Approximate
11:39AM 62.6145 -37.4556 245° Southwest  Level FlightAware Approximate
11:40AM 62.5709 -37.6566 245° Southwest  Level FlightAware Approximate
11:41AM 62.5271 -37.8571 245° Southwest  Level FlightAware Approximate
11:42AM 62.4830 -38.0570 245° Southwest  Level FlightAware Approximate
11:43AM 62.4386 -38.2562 244° Southwest  Level FlightAware Approximate
11:44AM 62.3939 -38.4549 244° Southwest  Level FlightAware Approximate
11:45AM 62.3489 -38.6530 244° Southwest  Level FlightAware Approximate
11:46AM 62.3037 -38.8505 244° Southwest  Level FlightAware Approximate
11:47AM 62.2582 -39.0474 244° Southwest  Level FlightAware Approximate
11:48AM 62.2124 -39.2437 243° Southwest  Level FlightAware Approximate
11:49AM 62.1663 -39.4394 243° Southwest  Level FlightAware Approximate
11:50AM 62.1199 -39.6346 243° Southwest  Level FlightAware Approximate
11:51AM 62.0733 -39.8291 243° Southwest  Level FlightAware Approximate
11:52AM 62.0264 -40.0230 243° Southwest  Level FlightAware Approximate
11:53AM 61.9792 -40.2163 243° Southwest  Level FlightAware Approximate
11:54AM 61.9318 -40.4090 242° Southwest  Level FlightAware Approximate
11:55AM 61.8841 -40.6012 242° Southwest  Level FlightAware Approximate
11:56AM 61.8361 -40.7927 242° Southwest  Level FlightAware Approximate
11:57AM 61.7878 -40.9836 242° Southwest  Level FlightAware Approximate
11:58AM 61.7393 -41.1739 242° Southwest  Level FlightAware Approximate
11:59AM 61.6906 -41.3636 242° Southwest  Level FlightAware Approximate
12:00PM 61.6415 -41.5528 241° Southwest  Level FlightAware Approximate
12:01PM 61.5922 -41.7413 241° Southwest  Level FlightAware Approximate
12:02PM 61.5427 -41.9292 241° Southwest  Level FlightAware Approximate
12:03PM 61.4929 -42.1165 241° Southwest  Level FlightAware Approximate
12:04PM 61.4428 -42.3032 241° Southwest  Level FlightAware Approximate
12:05PM 61.3925 -42.4894 241° Southwest  Level FlightAware Approximate
12:06PM 61.3419 -42.6749 240° Southwest  Level FlightAware Approximate
12:07PM 61.2911 -42.8598 240° Southwest  Level FlightAware Approximate
12:08PM 61.2400 -43.0441 240° Southwest  Level FlightAware Approximate
12:09PM 61.1887 -43.2278 240° Southwest  Level FlightAware Approximate
12:10PM 61.1371 -43.4110 240° Southwest  Level FlightAware Approximate
12:11PM 61.0853 -43.5935 240° Southwest  Level FlightAware Approximate
12:12PM 61.0332 -43.7754 239° Southwest  Level FlightAware Approximate
12:13PM 60.9809 -43.9567 239° Southwest  Level FlightAware Approximate
12:14PM 60.9284 -44.1375 239° Southwest  Level FlightAware Approximate
12:15PM 60.8756 -44.3176 239° Southwest  Level FlightAware Approximate
12:16PM 60.8225 -44.4971 239° Southwest  Level FlightAware Approximate
12:17PM 60.7693 -44.6761 239° Southwest  Level FlightAware Approximate
12:18PM 60.7158 -44.8544 239° Southwest  Level FlightAware Approximate
12:19PM 60.6620 -45.0322 238° Southwest  Level FlightAware Approximate
12:20PM 60.6080 -45.2093 238° Southwest  Level FlightAware Approximate
12:21PM 60.5538 -45.3859 238° Southwest  Level FlightAware Approximate
12:22PM 60.4994 -45.5619 238° Southwest  Level FlightAware Approximate
12:23PM 60.4447 -45.7373 238° Southwest  Level FlightAware Approximate
12:24PM 60.3898 -45.9120 238° Southwest  Level FlightAware Approximate
12:25PM 60.3346 -46.0863 237° Southwest  Level FlightAware Approximate
12:26PM 60.2793 -46.2599 237° Southwest  Level FlightAware Approximate
12:27PM 60.2237 -46.4329 237° Southwest  Level FlightAware Approximate
12:28PM 60.1679 -46.6053 237° Southwest  Level FlightAware Approximate
12:29PM 60.1119 -46.7772 237° Southwest  Level FlightAware Approximate
12:30PM 60.0556 -46.9484 237° Southwest  Level FlightAware Approximate
12:31PM 59.9991 -47.1191 237° Southwest  Level FlightAware Approximate
12:32PM 59.9425 -47.2893 236° Southwest  Level FlightAware Approximate
12:33PM 59.8857 -47.4590 236° Southwest  Level FlightAware Approximate
12:34PM 59.8286 -47.6281 236° Southwest  Level FlightAware Approximate
12:35PM 59.7714 -47.7966 236° Southwest  Level FlightAware Approximate
12:36PM 59.7140 -47.9645 236° Southwest  Level FlightAware Approximate
12:37PM 59.6563 -48.1318 236° Southwest  Level FlightAware Approximate
12:38PM 59.5984 -48.2986 236° Southwest  Level FlightAware Approximate
12:39PM 59.5403 -48.4648 235° Southwest  Level FlightAware Approximate
12:40PM 59.4820 -48.6304 235° Southwest  Level FlightAware Approximate
12:41PM 59.4235 -48.7955 235° Southwest  Level FlightAware Approximate
12:42PM 59.3648 -48.9600 235° Southwest  Level FlightAware Approximate
12:43PM 59.3059 -49.1239 235° Southwest  Level FlightAware Approximate
12:44PM 59.2467 -49.2872 235° Southwest  Level FlightAware Approximate
12:45PM 59.1874 -49.4500 235° Southwest  Level FlightAware Approximate
12:46PM 59.1278 -49.6122 234° Southwest  Level FlightAware Approximate
12:47PM 59.0681 -49.7739 234° Southwest  Level FlightAware Approximate
12:48PM 59.0082 -49.9350 234° Southwest  Level FlightAware Approximate
12:49PM 58.9480 -50.0955 234° Southwest  Level FlightAware Approximate
12:50PM 58.8877 -50.2555 234° Southwest  Level FlightAware Approximate
12:51PM 58.8272 -50.4149 234° Southwest  Level FlightAware Approximate
12:52PM 58.7664 -50.5737 234° Southwest  Level FlightAware Approximate
12:53PM 58.7055 -50.7320 234° Southwest  Level FlightAware Approximate
12:54PM 58.6444 -50.8898 233° Southwest  Level FlightAware Approximate
12:55PM 58.5831 -51.0470 233° Southwest  Level FlightAware Approximate
12:56PM 58.5216 -51.2036 233° Southwest  Level FlightAware Approximate
12:57PM 58.4599 -51.3597 233° Southwest  Level FlightAware Approximate
12:58PM 58.3980 -51.5153 233° Southwest  Level FlightAware Approximate
12:59PM 58.3205 -51.6642 225° Southwest  Level Estimated
01:00PM 58.2427 -51.8125 225° Southwest  Level Estimated
01:01PM 58.1648 -51.9601 225° Southwest  Level Estimated
01:02PM 58.0868 -52.1071 225° Southwest  Level Estimated
01:03PM 58.0085 -52.2534 225° Southwest  Level Estimated
01:04PM 57.9301 -52.3991 225° Southwest  Level Estimated
01:05PM 57.8516 -52.5442 225° Southwest  Level Estimated
01:06PM 57.7729 -52.6886 224° Southwest  Level Estimated
01:07PM 57.6940 -52.8324 224° Southwest  Level Estimated
01:08PM 57.6149 -52.9756 224° Southwest  Level Estimated
01:09PM 57.5357 -53.1181 224° Southwest  Level Estimated
01:10PM 57.4563 -53.2600 224° Southwest  Level Estimated
01:11PM 57.3768 -53.4014 224° Southwest  Level Estimated
01:12PM 57.2971 -53.5421 224° Southwest  Level Estimated
01:13PM 57.2172 -53.6822 224° Southwest  Level Estimated
01:14PM 57.1372 -53.8217 223° Southwest  Level Estimated
01:15PM 57.0570 -53.9605 223° Southwest  Level Estimated
01:16PM 56.9767 -54.0988 223° Southwest  Level Estimated
01:17PM 56.8963 -54.2365 223° Southwest  Level Estimated
01:18PM 56.8157 -54.3736 223° Southwest  Level Estimated
01:18PM 58.6167 -58.6667 222° Southwest 430 495 37,000  Level Gander Center
01:19PM 56.7349 -54.5101 223° Southwest  Level Estimated
01:19PM 58.5333 -58.8167 223° Southwest 430 495 37,000  Level Gander Center
01:20PM 56.6540 -54.6461 223° Southwest  Level Estimated
01:20PM 58.4500 -58.9833 226° Southwest 430 495 37,000  Level Gander Center
01:21PM 56.5729 -54.7814 223° Southwest  Level Estimated
01:21PM 58.3500 -59.1167 215° Southwest 420 483 37,000  Level Gander Center
01:22PM 56.4917 -54.9162 223° Southwest  Level Estimated
01:22PM 58.2333 -59.2167 204° Southwest 420 483 37,000  Level Gander Center
01:23PM 56.4104 -55.0504 222° Southwest  Level Estimated
01:23PM 58.1333 -59.3500 215° Southwest 430 495 37,000  Level Gander Center
01:24PM 58.0333 -59.4500 208° Southwest 430 495 37,000  Level Gander Center
01:25PM 57.9500 -59.5500 213° Southwest 430 495 37,000  Level Gander Center
01:26PM 57.8333 -59.6833 211° Southwest 430 495 37,000  Level Gander Center
01:27PM 57.7333 -59.7833 208° Southwest 430 495 37,000  Level Gander Center
01:28PM 57.6333 -59.9167 216° Southwest 430 495 37,000  Level Gander Center
01:29PM 57.5167 -60.0167 205° Southwest 430 495 37,000  Level Gander Center
01:30PM 57.4167 -60.1333 212° Southwest 430 495 37,000  Level Gander Center
01:31PM 57.3167 -60.2333 208° Southwest 430 495 37,000  Level Gander Center
01:32PM 57.2000 -60.3333 205° Southwest 430 495 37,000  Level Gander Center
01:33PM 57.1000 -60.4500 212° Southwest 430 495 37,000  Level Gander Center
01:34PM 57.0000 -60.5500 209° Southwest 430 495 37,000  Level Gander Center
01:35PM 56.9000 -60.6667 213° Southwest 400 460 37,000  Level Gander Center
01:36PM 56.7833 -60.7667 205° Southwest 430 495 37,000  Level Gander Center
01:37PM 56.6833 -60.8833 213° Southwest 430 495 37,000  Level Gander Center
01:38PM 56.5667 -60.9833 205° Southwest 430 495 37,000  Level Gander Center
01:39PM 56.4667 -61.1000 213° Southwest 430 495 37,000  Level Gander Center
01:40PM 56.3500 -61.2000 205° Southwest 430 495 37,000  Level Gander Center
01:41PM 56.2500 -61.2833 205° Southwest 430 495 37,000  Level Gander Center
01:42PM 56.1500 -61.4000 213° Southwest 430 495 37,000  Level Gander Center
01:43PM 56.0333 -61.4833 202° Southwest 430 495 37,000  Level Gander Center
01:44PM 55.9333 -61.6167 217° Southwest 430 495 37,000  Level Gander Center
01:45PM 55.8333 -61.7000 205° Southwest 430 495 37,000  Level Gander Center
01:46PM 55.7333 -61.7833 205° Southwest 430 495 37,000  Level Gander Center
01:47PM 55.6167 -61.9000 209° Southwest 430 495 37,000  Level Gander Center
01:48PM 55.5167 -61.9833 205° Southwest 430 495 37,000  Level Gander Center
01:49PM 55.4000 -62.1000 210° Southwest 430 495 37,000  Level Gander Center
01:50PM 55.3000 -62.1833 205° Southwest 430 495 37,000  Level Gander Center
01:51PM 55.2000 -62.2833 210° Southwest 430 495 37,000  Level Gander Center
01:52PM 55.0833 -62.3833 206° Southwest 440 506 37,000  Level Gander Center
01:53PM 54.9833 -62.4833 210° Southwest 430 495 37,000  Level Gander Center
01:54PM 54.8833 -62.5833 210° Southwest 430 495 37,000  Level Gander Center
01:55PM 54.7667 -62.6667 202° Southwest 430 495 37,000  Level Gander Center
01:56PM 54.6500 -62.7833 210° Southwest 430 495 37,000  Level Gander Center
01:57PM 54.5500 -62.8667 206° Southwest 440 506 37,000  Level Gander Center
01:58PM 54.4333 -62.9500 203° Southwest 440 506 37,000  Level Gander Center
01:59PM 54.3333 -63.0667 214° Southwest 440 506 37,000  Level Gander Center
02:00PM 54.2333 -63.1333 201° Southwest 440 506 37,000 240 Level Gander Center
02:01PM 54.1167 -63.2500 210° Southwest 430 495 37,500 480 Climbing Gander Center
02:02PM 54.0167 -63.3333 206° Southwest 440 506 38,000 240 Climbing Gander Center
02:03PM 53.9000 -63.4333 207° Southwest 440 506 38,000  Level Gander Center
02:04PM 53.8000 -63.5167 206° Southwest 440 506 38,000  Level Gander Center
02:05PM 53.6667 -63.6167 204° Southwest 440 506 38,000  Level Gander Center
02:06PM 53.5667 -63.7000 206° Southwest 440 506 38,000  Level Gander Center
02:07PM 53.4667 -63.8167 215° Southwest 440 506 38,000  Level Gander Center
02:08PM 53.3500 -63.8833 199° South 450 518 38,000  Level Gander Center
02:09PM 53.2500 -64.0000 215° Southwest 440 506 38,000  Level Gander Center
02:10PM 53.1333 -64.0667 199° South 440 506 38,000  Level Gander Center
02:11PM 53.0167 -64.1667 207° Southwest 440 506 38,000  Level Gander Center
02:12PM 52.9000 -64.2500 203° Southwest 440 506 38,000  Level Gander Center
02:13PM 52.7833 -64.3500 207° Southwest 450 518 38,000  Level Gander Center
02:14PM 52.6833 -64.4333 207° Southwest 450 518 38,000  Level Gander Center
02:15PM 52.5667 -64.5333 208° Southwest 450 518 38,000  Level Gander Center
02:16PM 52.4500 -64.6333 208° Southwest 450 518 38,000  Level Gander Center
02:17PM 52.3500 -64.7000 202° Southwest 450 518 38,000  Level Gander Center
02:18PM 52.2167 -64.7833 201° Southwest 450 518 38,000  Level Gander Center
02:19PM 52.1167 -64.8833 212° Southwest 450 518 38,000  Level Gander Center
02:20PM 52.0000 -64.9500 199° South 450 518 38,000  Level Gander Center
02:21PM 51.8833 -65.0500 208° Southwest 450 518 38,000  Level Gander Center
02:22PM 51.7833 -65.1167 202° Southwest 450 518 38,000  Level Gander Center
02:23PM 51.6667 -65.2167 208° Southwest 450 518 38,000  Level Gander Center
02:24PM 51.5500 -65.3167 208° Southwest 450 518 38,000  Level Gander Center
02:25PM 51.4333 -65.3833 200° South 450 518 38,000  Level Gander Center
02:26PM 51.3167 -65.4500 200° South 450 518 38,000  Level Gander Center
02:27PM 51.2000 -65.5333 204° Southwest 450 518 38,000  Level Gander Center
02:28PM 51.0833 -65.6000 200° South 460 529 38,000  Level Gander Center
02:29PM 50.9500 -65.6667 197° South 460 529 38,000  Level Gander Center
02:30PM 50.8333 -65.7667 208° Southwest 460 529 38,000  Level Gander Center
02:31PM 50.7167 -65.8333 200° South 460 529 38,000  Level Gander Center
02:32PM 50.6000 -65.9000 200° South 460 529 38,000  Level Gander Center
02:33PM 50.4833 -65.9667 200° South 460 529 38,000  Level Gander Center
02:34PM 50.3500 -66.0333 198° South 460 529 38,000  Level Gander Center
02:35PM 50.2333 -66.1000 200° South 470 541 38,000  Level Gander Center
02:36PM 50.1167 -66.1667 200° South 460 529 38,000  Level Gander Center
02:37PM 50.0000 -66.2333 200° South 460 529 38,000  Level Gander Center
02:38PM 49.8833 -66.2833 195° South 460 529 38,000  Level Gander Center
02:39PM 49.7500 -66.3500 198° South 460 529 38,000  Level Gander Center
02:40PM 49.6333 -66.4167 200° South 460 529 38,000  Level Gander Center
02:41PM 49.5167 -66.4833 200° South 460 529 38,000  Level Gander Center
02:42PM 49.4000 -66.5500 200° South 460 529 38,000  Level Gander Center
02:43PM 49.2667 -66.6333 202° Southwest 460 529 38,000  Level Gander Center
02:44PM 49.1500 -66.7000 200° South 460 529 38,000  Level Gander Center
02:45PM 49.0167 -66.7667 198° South 460 529 38,000  Level Gander Center
02:46PM 48.9167 -66.8333 204° Southwest 460 529 38,000  Level Gander Center
02:47PM 48.7833 -66.8833 194° South 460 529 38,000  Level Gander Center
02:48PM 48.6500 -66.9500 198° South 460 529 38,000  Level Gander Center
02:49PM 48.5500 -67.0167 204° Southwest 470 541 38,000  Level Gander Center
02:50PM 48.4167 -67.0833 198° South 470 541 38,000  Level Gander Center
02:51PM 48.3000 -67.1333 196° South 460 529 38,000  Level Gander Center
02:52PM 48.1833 -67.2000 201° Southwest 460 529 38,000  Level Gander Center
02:53PM 48.0500 -67.2667 198° South 470 541 38,000  Level Gander Center
02:54PM 47.9167 -67.3500 203° Southwest 470 541 38,000  Level Gander Center
02:55PM 47.8167 -67.4000 199° South 470 541 38,000  Level Gander Center
02:56PM 47.7000 -67.4667 201° Southwest 470 541 38,000  Level Gander Center
02:57PM 47.5500 -67.5167 193° South 470 541 38,000  Level Gander Center
02:57PM 47.5039 -67.5522 208° Southwest 474 545 38,000  Level Boston Center
02:59PM 47.2833 -67.6500 197° South 470 541 38,000  Level Moncton Center
03:00PM 47.1500 -67.7167 199° South 470 541 38,000  Level Moncton Center
03:04PM 46.7298 -67.9338 198° South 471 542 38,000  Level FlightAware ADS-B (CYSG)
03:06PM 46.4736 -68.0578 198° South 469 540 38,000  Level FlightAware ADS-B (CYSG)
03:06PM 46.3955 -68.0953 198° South 469 540 38,000  Level FlightAware ADS-B (CYSG)
03:07PM 46.3354 -68.1241 198° South 469 540 38,000  Level FlightAware ADS-B (CYSG)
03:07PM 46.2649 -68.1578 198° South 468 539 38,000  Level FlightAware ADS-B (CYSG)
03:08PM 46.1499 -68.2126 198° South 464 534 38,000  Level FlightAware ADS-B (CYSG)
03:09PM 46.0863 -68.2428 198° South 459 528 38,000  Level FlightAware ADS-B (CYSG)
03:09PM 46.0195 -68.2745 198° South 457 526 38,000  Level FlightAware ADS-B (CYSG)
03:10PM 45.9584 -68.3034 198° South 456 525 38,000  Level FlightAware ADS-B (CYSG)
03:10PM 45.8979 -68.3320 198° South 455 524 38,000  Level FlightAware ADS-B (CYSG)
03:11PM 45.8248 -68.3663 198° South 452 520 38,000  Level FlightAware ADS-B (CYSG)
03:12PM 45.7420 -68.4052 198° South 450 518 38,000  Level FlightAware ADS-B (CYSG)
03:12PM 45.6772 -68.4355 198° South 449 517 38,000  Level FlightAware ADS-B (CYSG)
03:13PM 45.6175 -68.4633 198° South 448 516 38,000  Level FlightAware ADS-B (CYSG)
03:13PM 45.5472 -68.4961 198° South 448 516 38,000  Level FlightAware ADS-B (KBGR)
03:14PM 45.4959 -68.5201 198° South 448 516 38,000  Level FlightAware ADS-B (KBGR)
03:14PM 45.4530 -68.5464 211° Southwest 440 506 38,000  Level FlightAware ADS-B (CYSG)
03:14PM 45.4655 -68.5367 212° Southwest 440 506 38,000  Level FlightAware ADS-B (CYQI)
03:15PM 45.3839 -68.6143 215° Southwest 442 509 38,000  Level FlightAware ADS-B (KBGR)
03:15PM 45.3307 -68.6662 215° Southwest 445 512 38,000  Level FlightAware ADS-B (CYSG)
03:16PM 45.2763 -68.7195 215° Southwest 446 513 38,000  Level FlightAware ADS-B (CYQI)
03:16PM 45.2233 -68.7709 214° Southwest 447 514 38,000  Level FlightAware ADS-B (CYSG)
03:17PM 45.1592 -68.8333 214° Southwest 451 519 38,000  Level FlightAware ADS-B (KBGR)
03:18PM 45.1115 -68.8794 214° Southwest 455 524 38,000  Level FlightAware ADS-B (KBGR)
03:18PM 45.0704 -68.9191 214° Southwest 456 525 38,000  Level FlightAware ADS-B (KBGR)
03:19PM 44.9998 -68.9871 214° Southwest 458 527 38,000  Level FlightAware ADS-B (CYQI)
03:19PM 44.9355 -69.0489 214° Southwest 460 529 38,000  Level FlightAware ADS-B (CYSG)
03:20PM 44.8814 -69.1008 214° Southwest 462 532 38,000  Level FlightAware ADS-B (KBGR)
03:20PM 44.8331 -69.1468 214° Southwest 462 532 38,000  Level FlightAware ADS-B (KBGR)
03:21PM 44.7815 -69.1960 214° Southwest 461 531 38,000  Level FlightAware ADS-B (KBGR)
03:21PM 44.7143 -69.2597 214° Southwest 460 529 38,000  Level FlightAware ADS-B (CYSG)
03:22PM 44.6620 -69.3091 214° Southwest 459 528 38,000  Level FlightAware ADS-B (CYSG)
03:22PM 44.5956 -69.3719 214° Southwest 460 529 38,000  Level FlightAware ADS-B (CYSG)
03:23PM 44.5439 -69.4205 214° Southwest 463 533 38,000  Level FlightAware ADS-B (KBGR)
03:23PM 44.4826 -69.4783 214° Southwest 465 535 38,000  Level FlightAware ADS-B (CYSG)
03:24PM 44.4304 -69.5272 214° Southwest 466 536 38,000  Level FlightAware ADS-B (CYSG)
03:24PM 44.3710 -69.5828 214° Southwest 464 534 38,000  Level FlightAware ADS-B (CYSG)
03:25PM 44.3094 -69.6403 214° Southwest 464 534 38,000  Level FlightAware ADS-B (CYQI)
03:26PM 44.2397 -69.7052 214° Southwest 462 532 38,000  Level FlightAware ADS-B (CYQI)
03:26PM 44.1863 -69.7548 214° Southwest 463 533 38,000  Level FlightAware ADS-B (CYQI)
03:27PM 44.1457 -69.7925 214° Southwest 463 533 38,000  Level FlightAware ADS-B (KBOS)
03:27PM 44.1290 -69.8080 214° Southwest 462 532 38,000  Level FlightAware ADS-B (CYQI)
03:30PM 43.8162 -70.0952 213° Southwest 459 528 38,000  Level FlightAware ADS-B
03:30PM 43.7626 -70.1443 214° Southwest 442 509 38,000  Level FlightAware ADS-B
03:31PM 43.7102 -70.1918 213° Southwest 447 514 38,000  Level FlightAware ADS-B
03:31PM 43.6422 -70.2539 214° Southwest 444 511 38,000  Level FlightAware ADS-B
03:32PM 43.5938 -70.2978 213° Southwest 443 510 38,000  Level FlightAware ADS-B (KBOS)
03:32PM 43.5230 -70.3615 213° Southwest 441 507 38,000  Level FlightAware ADS-B
03:33PM 43.4696 -70.4097 213° Southwest 441 507 38,000  Level FlightAware ADS-B
03:34PM 43.4184 -70.4557 213° Southwest 439 505 38,000  Level FlightAware ADS-B
03:34PM 43.3676 -70.5013 213° Southwest 439 505 38,000  Level FlightAware ADS-B
03:35PM 43.3121 -70.5511 213° Southwest 439 505 38,000  Level FlightAware ADS-B (KBOS)
03:36PM 43.2137 -70.6392 213° Southwest 444 511 38,000  Level FlightAware ADS-B
03:36PM 43.1523 -70.6938 213° Southwest 445 512 38,000  Level FlightAware ADS-B (KBOS)
03:37PM 43.0920 -70.7473 213° Southwest 444 511 38,000  Level FlightAware ADS-B (KBOS)
03:37PM 43.0381 -70.7950 213° Southwest 444 511 38,000  Level FlightAware ADS-B
03:38PM 42.9890 -70.8384 213° Southwest 445 512 38,000  Level FlightAware ADS-B (KBOS)
03:38PM 42.9321 -70.8886 213° Southwest 442 509 38,000  Level FlightAware ADS-B (KBOS)
03:39PM 42.8656 -70.9472 213° Southwest 441 507 38,000  Level FlightAware ADS-B (KBOS)
03:39PM 42.8138 -70.9926 213° Southwest 441 507 38,000  Level FlightAware ADS-B
03:40PM 42.7523 -71.0467 213° Southwest 441 507 38,000  Level FlightAware ADS-B
03:40PM 42.7040 -71.0952 218° Southwest 436 502 38,000  Level FlightAware ADS-B
03:41PM 42.6515 -71.1515 219° Southwest 430 495 38,000  Level FlightAware ADS-B
03:41PM 42.6194 -71.1850 218° Southwest 437 503 38,000  Level FlightAware ADS-B
03:42PM 42.5539 -71.2522 217° Southwest 441 507 38,000  Level FlightAware ADS-B
03:43PM 42.5058 -71.3011 217° Southwest 446 513 38,000  Level FlightAware ADS-B
03:43PM 42.4474 -71.3605 218° Southwest 443 510 38,000  Level FlightAware ADS-B
03:44PM 42.4679 -71.3397 217° Southwest 450 518 38,000  Level FlightAware ADS-B (KOWD)
03:44PM 42.3413 -71.4682 217° Southwest 447 514 38,000  Level FlightAware ADS-B
03:45PM 42.2880 -71.5220 217° Southwest 446 513 38,000  Level FlightAware ADS-B
03:45PM 42.2404 -71.5700 217° Southwest 446 513 38,000  Level FlightAware ADS-B
03:46PM 42.1909 -71.6197 217° Southwest 445 512 38,000  Level FlightAware ADS-B
03:46PM 42.1410 -71.6697 217° Southwest 443 510 38,000  Level FlightAware ADS-B
03:47PM 42.0943 -71.7166 217° Southwest 439 505 38,000  Level FlightAware ADS-B
03:47PM 42.0410 -71.7699 217° Southwest 436 502 38,000  Level FlightAware ADS-B
03:48PM 41.9886 -71.8222 217° Southwest 435 501 38,000  Level FlightAware ADS-B (KSNC)
03:48PM 41.9309 -71.8796 217° Southwest 433 498 38,000  Level FlightAware ADS-B
03:49PM 41.8796 -71.9305 217° Southwest 431 496 38,000  Level FlightAware ADS-B (KSNC)
03:49PM 41.8309 -71.9789 217° Southwest 430 495 38,000  Level FlightAware ADS-B
03:50PM 41.7825 -72.0269 217° Southwest 430 495 38,000  Level FlightAware ADS-B (KSNC)
03:50PM 41.7367 -72.0720 216° Southwest 431 496 38,000  Level FlightAware ADS-B (KSNC)
03:51PM 41.7432 -72.0656 217° Southwest 432 497 38,000  Level FlightAware ADS-B (KOWD)
03:51PM 41.6795 -72.1285 217° Southwest 426 490 38,000  Level FlightAware ADS-B
03:51PM 41.6396 -72.1677 217° Southwest 426 490 38,000  Level FlightAware ADS-B
03:52PM 41.6131 -72.1937 217° Southwest 426 490 38,000  Level FlightAware ADS-B
03:52PM 41.5966 -72.2099 217° Southwest 434 499 38,000  Level FlightAware ADS-B (KSNC)
03:52PM 41.5437 -72.2618 216° Southwest 432 497 38,000  Level FlightAware ADS-B
03:53PM 41.5084 -72.2963 217° Southwest 426 490 38,000  Level FlightAware ADS-B
03:53PM 41.4586 -72.3450 216° Southwest 428 493 38,000  Level FlightAware ADS-B
03:54PM 41.4120 -72.3904 216° Southwest 428 493 38,000  Level FlightAware ADS-B
03:54PM 41.3585 -72.4425 216° Southwest 429 494 38,000  Level FlightAware ADS-B (KSNC)
03:55PM 41.3100 -72.4895 216° Southwest 431 496 38,000  Level FlightAware ADS-B (KSNC)
03:56PM 41.2410 -72.5565 216° Southwest 432 497 38,000  Level FlightAware ADS-B (KSNC)
03:56PM 41.1965 -72.5996 216° Southwest 431 496 38,000  Level FlightAware ADS-B
03:57PM 41.1307 -72.6630 216° Southwest 429 494 38,000  Level FlightAware ADS-B (KSNC)
03:57PM 41.0804 -72.7115 216° Southwest 429 494 38,000  Level FlightAware ADS-B (KSNC)
03:58PM 41.0197 -72.7698 216° Southwest 430 495 38,000  Level FlightAware ADS-B (KSNC)
03:58PM 40.9699 -72.8176 216° Southwest 430 495 38,000  Level FlightAware ADS-B (KSNC)
03:59PM 40.9146 -72.8704 216° Southwest 430 495 38,000  Level FlightAware ADS-B (KSNC)
03:59PM 40.8670 -72.9161 216° Southwest 429 494 38,000  Level FlightAware ADS-B (KSNC)
04:00PM 40.8067 -72.9734 216° Southwest 428 493 38,000  Level FlightAware ADS-B (KSNC)
04:01PM 40.7593 -73.0184 216° Southwest 424 488 38,000  Level FlightAware ADS-B (KSNC)
04:01PM 40.6874 -73.0865 216° Southwest 423 487 38,000  Level FlightAware ADS-B (KSNC)
04:02PM 40.6429 -73.1287 216° Southwest 424 488 38,000  Level FlightAware ADS-B (KSNC)
04:02PM 40.5824 -73.1860 216° Southwest 423 487 38,000  Level FlightAware ADS-B (KPVU)
04:03PM 40.5293 -73.2361 216° Southwest 426 490 38,000  Level FlightAware ADS-B (KSNC)
04:04PM 40.4746 -73.2876 216° Southwest 430 495 38,000  Level FlightAware ADS-B (KSNC)
04:04PM 40.4210 -73.3379 216° Southwest 432 497 38,000  Level FlightAware ADS-B (KSNC)
04:05PM 40.3694 -73.3864 216° Southwest 434 499 38,000  Level FlightAware ADS-B (KSNC)
04:05PM 40.3045 -73.4469 216° Southwest 434 499 38,000  Level FlightAware ADS-B (KSNC)
04:06PM 40.2499 -73.4979 216° Southwest 433 498 38,000  Level FlightAware ADS-B (KSNC)
04:06PM 40.2081 -73.5368 215° Southwest 433 498 38,000  Level FlightAware ADS-B (KSNC)
04:07PM 40.1535 -73.5875 215° Southwest 433 498 38,000  Level FlightAware ADS-B (KSNC)
04:07PM 40.0991 -73.6379 216° Southwest 434 499 38,000  Level FlightAware ADS-B (KPVU)
04:08PM 40.0297 -73.7022 215° Southwest 435 501 38,000  Level FlightAware ADS-B (KPVU)
04:09PM 39.9736 -73.7541 215° Southwest 437 503 38,000  Level FlightAware ADS-B (KPVU)
04:09PM 39.9005 -73.8215 215° Southwest 438 504 38,000  Level FlightAware ADS-B (KPVU)
04:10PM 39.8413 -73.8760 215° Southwest 435 501 38,000  Level FlightAware ADS-B (KWWD)
04:11PM 39.7847 -73.9278 215° Southwest 436 502 38,000  Level FlightAware ADS-B (KPVU)
04:11PM 39.7299 -73.9779 215° Southwest 436 502 38,000  Level FlightAware ADS-B (KPVU)
04:12PM 39.6748 -74.0283 215° Southwest 435 501 38,000  Level FlightAware ADS-B (KWWD)
04:12PM 39.6243 -74.0743 215° Southwest 434 499 38,000  Level FlightAware ADS-B (KWWD)
04:13PM 39.5662 -74.1273 215° Southwest 434 499 38,000  Level FlightAware ADS-B (KPVU)
04:13PM 39.5073 -74.1806 215° Southwest 434 499 38,000  Level FlightAware ADS-B (KWWD)
04:14PM 39.4397 -74.2354 211° Southwest 434 499 38,000  Level FlightAware ADS-B (KWWD)
04:15PM 39.3678 -74.2894 211° Southwest 435 501 38,000  Level FlightAware ADS-B (KWWD)
04:15PM 39.2985 -74.3425 212° Southwest 435 501 38,000  Level FlightAware ADS-B (KWWD)
04:16PM 39.2417 -74.3863 211° Southwest 434 499 38,000  Level FlightAware ADS-B (KWWD)
04:16PM 39.1852 -74.4297 211° Southwest 439 505 38,000  Level FlightAware ADS-B (KPVU)
04:17PM 39.1210 -74.4791 211° Southwest 438 504 38,000  Level FlightAware ADS-B (KPVU)
04:18PM 38.9842 -74.5836 211° Southwest 441 507 38,000  Level FlightAware ADS-B (KPVU)
04:19PM 38.9182 -74.6339 212° Southwest 434 499 38,000  Level FlightAware ADS-B (KWWD)
04:20PM 38.8515 -74.6848 211° Southwest 435 501 38,000  Level FlightAware ADS-B (KWWD)
04:20PM 38.7990 -74.7245 211° Southwest 443 510 38,000  Level FlightAware ADS-B
04:21PM 38.7399 -74.7693 211° Southwest 444 511 38,000  Level FlightAware ADS-B (KSBY)
04:21PM 38.6865 -74.8098 211° Southwest 443 510 38,000  Level FlightAware ADS-B (KSBY)
04:22PM 38.5995 -74.8751 211° Southwest 437 503 38,000  Level FlightAware ADS-B (KSBY)
04:23PM 38.5448 -74.9164 211° Southwest 434 499 38,000  Level FlightAware ADS-B (KSBY)
04:23PM 38.4921 -74.9560 211° Southwest 434 499 38,000  Level FlightAware ADS-B (KWWD)
04:24PM 38.4395 -74.9955 211° Southwest 432 497 38,000  Level FlightAware ADS-B (KWWD)
04:24PM 38.3881 -75.0342 211° Southwest 434 499 38,000  Level FlightAware ADS-B (KSBY)
04:24PM 38.3632 -75.0528 211° Southwest 429 494 38,000  Level FlightAware ADS-B (KWWD)
04:25PM 38.3253 -75.0810 211° Southwest 430 495 38,000  Level FlightAware ADS-B (KWWD)
04:25PM 38.3102 -75.0924 211° Southwest 429 494 38,000  Level FlightAware ADS-B (KWWD)
04:25PM 38.2708 -75.1216 210° Southwest 436 502 38,000  Level FlightAware ADS-B (KSBY)
04:26PM 38.2348 -75.1485 211° Southwest 429 494 38,000  Level FlightAware ADS-B (KWWD)
04:26PM 38.1974 -75.1764 211° Southwest 429 494 38,000  Level FlightAware ADS-B (KWWD)
04:26PM 38.1456 -75.2149 211° Southwest 428 493 38,000  Level FlightAware ADS-B (KWWD)
04:27PM 38.1297 -75.2267 211° Southwest 427 491 38,000  Level FlightAware ADS-B (KWWD)
04:27PM 38.1163 -75.2366 211° Southwest 427 491 38,000  Level FlightAware ADS-B (KWWD)
04:27PM 38.0975 -75.2505 211° Southwest 427 491 38,000  Level FlightAware ADS-B (KWWD)
04:27PM 38.0809 -75.2628 211° Southwest 427 491 38,000  Level FlightAware ADS-B (KWWD)
04:28PM 38.0237 -75.3050 211° Southwest 429 494 38,000  Level FlightAware ADS-B (KWWD)
04:28PM 37.9577 -75.3539 210° Southwest 436 502 38,000  Level FlightAware ADS-B (KSBY)
04:29PM 37.8897 -75.4041 210° Southwest 437 503 38,000  Level FlightAware ADS-B (KSBY)
04:29PM 37.8749 -75.4150 211° Southwest 429 494 38,000  Level FlightAware ADS-B (KWWD)
04:30PM 37.8176 -75.4572 211° Southwest 429 494 38,000  Level FlightAware ADS-B (KWWD)
04:30PM 37.8006 -75.4697 211° Southwest 429 494 38,000  Level FlightAware ADS-B (KWWD)
04:30PM 37.7483 -75.5080 210° Southwest 435 501 38,000  Level FlightAware ADS-B (KSBY)
04:30PM 37.7405 -75.5137 211° Southwest 428 493 38,000  Level FlightAware ADS-B (KWWD)
04:31PM 37.6816 -75.5567 210° Southwest 433 498 38,000  Level FlightAware ADS-B (KSBY)
04:31PM 37.6178 -75.6033 210° Southwest 431 496 38,000  Level FlightAware ADS-B (KSBY)
04:32PM 37.5686 -75.6392 210° Southwest 431 496 38,000  Level FlightAware ADS-B (KWWD)
04:33PM 37.4431 -75.7331 210° Southwest 441 507 38,000  Level Washington Center
04:34PM 37.3386 -75.8086 210° Southwest 441 507 38,000  Level Washington Center
04:35PM 37.2364 -75.8842 210° Southwest 441 507 38,000  Level Washington Center
04:36PM 37.1319 -75.9592 210° Southwest 436 502 38,000  Level Washington Center
04:37PM 37.0314 -76.0342 211° Southwest 436 502 38,000  Level Washington Center
04:38PM 36.9228 -76.1036 207° Southwest 436 502 38,000  Level Washington Center
04:39PM 36.8200 -76.1783 210° Southwest 436 502 38,000  Level Washington Center
04:40PM 36.7175 -76.2528 210° Southwest 436 502 38,000  Level Washington Center
04:41PM 36.6233 -76.3139 208° Southwest 430 495 38,000  Level Washington Center
04:42PM 36.5083 -76.3672 200° South 435 501 38,000  Level Washington Center
04:43PM 36.3931 -76.4228 201° Southwest 441 507 38,000  Level Washington Center
04:44PM 36.2758 -76.4731 199° South 447 514 38,000  Level Washington Center
04:45PM 36.1608 -76.5283 201° Southwest 447 514 38,000  Level Washington Center
04:46PM 36.0456 -76.5811 200° South 447 514 38,000  Level Washington Center
04:47PM 35.9303 -76.6333 200° South 447 514 38,000  Level Washington Center
04:48PM 35.8150 -76.6883 201° Southwest 447 514 38,000  Level Washington Center
04:49PM 35.7000 -76.7378 199° South 447 514 38,000  Level Washington Center
04:50PM 35.5847 -76.7925 201° Southwest 447 514 38,000  Level Washington Center
04:51PM 35.4694 -76.8417 199° South 447 514 38,000  Level Washington Center
04:52PM 35.3539 -76.8958 201° Southwest 447 514 38,000  Level Washington Center
04:53PM 35.2344 -76.9475 199° South 447 514 38,000  Level Washington Center
04:54PM 35.1169 -77.0014 201° Southwest 447 514 38,000  Level Washington Center
04:55PM 34.9933 -77.0600 201° Southwest 447 514 38,000  Level Washington Center
04:56PM 34.9008 -77.1014 200° South 447 514 38,000  Level Washington Center
04:57PM 34.7625 -77.1619 200° South 447 514 38,000  Level Washington Center
04:58PM 34.6492 -77.2128 200° South 447 514 38,000  Level Washington Center
04:59PM 34.5336 -77.2636 200° South 447 514 38,000  Level Washington Center
05:00PM 34.4181 -77.3142 200° South 447 514 38,000  Level Washington Center
05:01PM 34.3028 -77.3644 200° South 447 514 38,000  Level Washington Center
05:03PM 34.1092 -77.4503 200° South 436 502 38,000  Level Jacksonville Center
05:04PM 33.9800 -77.5061 200° South 436 502 38,000  Level Jacksonville Center
05:05PM 33.8633 -77.5556 199° South 443 510 38,000  Level Jacksonville Center
05:06PM 33.7464 -77.6053 199° South 443 510 38,000  Level Jacksonville Center
05:07PM 33.6419 -77.6514 200° South 448 516 38,000  Level Jacksonville Center
05:08PM 33.5272 -77.7031 201° Southwest 448 516 38,000  Level Jacksonville Center
05:09PM 33.4106 -77.7547 200° South 448 516 38,000  Level Jacksonville Center
05:10PM 33.2956 -77.8036 200° South 448 516 38,000  Level Jacksonville Center
05:11PM 33.1786 -77.8547 200° South 448 516 38,000  Level Jacksonville Center
05:12PM 33.0617 -77.9011 198° South 443 510 38,000  Level Jacksonville Center
05:13PM 32.9428 -77.9547 201° Southwest 443 510 38,000  Level Jacksonville Center
05:14PM 32.8256 -78.0008 198° South 443 510 38,000  Level Jacksonville Center
05:15PM 32.7086 -78.0514 200° South 443 510 38,000  Level Jacksonville Center
05:16PM 32.5933 -78.0994 199° South 443 510 38,000  Level Jacksonville Center
05:17PM 32.4803 -78.1447 199° South 443 510 38,000  Level Jacksonville Center
05:18PM 32.3653 -78.1928 199° South 443 510 38,000  Level Jacksonville Center
05:19PM 32.2381 -78.2508 201° Southwest 443 510 38,000  Level Jacksonville Center
05:20PM 32.1250 -78.2983 200° South 443 510 38,000  Level Jacksonville Center
05:21PM 32.0119 -78.3481 200° South 444 511 38,000  Level Jacksonville Center
05:22PM 31.8947 -78.3953 199° South 444 511 38,000  Level Jacksonville Center
05:23PM 31.7794 -78.4425 199° South 439 505 38,000  Level Jacksonville Center
05:24PM 31.6622 -78.4897 199° South 439 505 38,000  Level Jacksonville Center
05:25PM 31.5489 -78.5364 199° South 444 511 38,000  Level Jacksonville Center
05:26PM 31.4314 -78.5808 198° South 449 517 38,000  Level Jacksonville Center
05:27PM 31.3100 -78.6303 199° South 449 517 38,000  Level Jacksonville Center
05:28PM 31.2067 -78.6617 195° South 436 502 38,000  Level Jacksonville Center
05:29PM 31.0897 -78.7225 204° Southwest 442 509 38,000  Level Jacksonville Center
05:30PM 30.9639 -78.7694 198° South 442 509 38,000  Level Jacksonville Center
05:31PM 30.8464 -78.8133 198° South 444 511 38,000  Level Jacksonville Center
05:32PM 30.7308 -78.8617 200° South 445 512 38,000  Level Jacksonville Center
05:34PM 30.5131 -78.9475 199° South 441 507 38,000  Level Miami Center
05:35PM 30.3956 -78.9933 199° South 436 502 38,000  Level Miami Center
05:36PM 30.2825 -79.0389 199° South 442 509 38,000  Level Miami Center
05:37PM 30.1650 -79.0822 198° South 447 514 38,000  Level Miami Center
05:38PM 30.0517 -79.1253 198° South 440 506 38,000  Level Miami Center
05:39PM 29.9236 -79.1825 201° Southwest 446 513 38,000  Level Miami Center
05:40PM 29.8103 -79.2278 199° South 446 513 38,000  Level Miami Center
05:41PM 29.6989 -79.2756 200° South 439 505 38,000  Level Miami Center
05:42PM 29.5917 -79.3258 202° Southwest 431 496 38,000  Level Miami Center
05:43PM 29.4683 -79.3564 192° South 436 502 38,000  Level Miami Center
05:44PM 29.3297 -79.4078 198° South 436 502 38,000  Level Miami Center
05:49PM 28.7411 -79.6285 198° South 437 503 38,000  Level FlightAware ADS-B (KMCO)
05:52PM 28.4281 -79.8056 210° Southwest 418 481 38,000  Level FlightAware ADS-B (KMCO)
05:53PM 28.3802 -79.8364 210° Southwest 420 483 38,000  Level FlightAware ADS-B (KMCO)
05:53PM 28.3316 -79.8676 210° Southwest 421 484 38,000  Level FlightAware ADS-B (KMCO)
05:54PM 28.2422 -79.9247 210° Southwest 421 484 38,000  Level FlightAware ADS-B (KMCO)
05:55PM 28.1959 -79.9542 210° Southwest 421 484 38,000  Level FlightAware ADS-B (KMCO)
05:55PM 28.1374 -79.9915 209° Southwest 419 482 38,000  Level FlightAware ADS-B (KMCO)
05:56PM 28.0843 -80.0253 209° Southwest 420 483 38,000  Level FlightAware ADS-B (KMCO)
05:56PM 28.0245 -80.0633 209° Southwest 421 484 38,000  Level FlightAware ADS-B (KMCO)
05:57PM 27.9526 -80.1089 209° Southwest 422 486 38,000  Level FlightAware ADS-B (KMCO)
05:58PM 27.8842 -80.1523 209° Southwest 423 487 38,000  Level FlightAware ADS-B (KMCO)
05:58PM 27.8158 -80.1956 209° Southwest 421 484 38,000  Level FlightAware ADS-B (KMCO)
05:59PM 27.7498 -80.2373 209° Southwest 420 483 38,000  Level FlightAware ADS-B (KMCO)
06:00PM 27.6817 -80.2804 209° Southwest 421 484 38,000  Level FlightAware ADS-B (KMCO)
06:00PM 27.6339 -80.3105 209° Southwest 421 484 38,000  Level FlightAware ADS-B (KMCO)
06:01PM 27.5782 -80.3456 209° Southwest 422 486 38,000  Level FlightAware ADS-B (KMCO)
06:01PM 27.5276 -80.3774 209° Southwest 423 487 38,000  Level FlightAware ADS-B (KMCO)
06:02PM 27.4605 -80.4196 209° Southwest 423 487 38,000  Level FlightAware ADS-B (KMCO)
06:02PM 27.4095 -80.4516 209° Southwest 424 488 38,000  Level FlightAware ADS-B (KMCO)
06:03PM 27.3561 -80.4850 209° Southwest 424 488 38,000  Level FlightAware ADS-B (KMCO)
06:03PM 27.3033 -80.5181 209° Southwest 425 489 38,000  Level FlightAware ADS-B (KMCO)
06:04PM 27.2352 -80.5606 209° Southwest 424 488 38,000  Level FlightAware ADS-B (KMCO)
06:04PM 27.1837 -80.5928 209° Southwest 423 487 38,000  Level FlightAware ADS-B (KMCO)
06:05PM 27.0804 -80.6573 209° Southwest 423 487 38,000  Level FlightAware ADS-B (KMCO)
06:06PM 26.9958 -80.7100 209° Southwest 422 486 38,000  Level FlightAware ADS-B (KMCO)
06:07PM 26.9477 -80.7398 209° Southwest 422 486 38,000  Level FlightAware ADS-B (KMCO)
06:07PM 26.8756 -80.7846 209° Southwest 421 484 38,000  Level FlightAware ADS-B (KMCO)
06:09PM 26.6788 -80.9064 209° Southwest 421 484 38,000  Level FlightAware ADS-B (KMCO)
06:11PM 26.5219 -81.0033 209° Southwest 422 486 38,000  Level FlightAware ADS-B (KMCO)
06:13PM 26.3022 -81.1383 209° Southwest 423 487 38,000  Level FlightAware ADS-B (KMCO)
06:14PM 26.1911 -81.2092 209° Southwest 422 486 38,000  Level Miami Center
06:15PM 26.0869 -81.2725 209° Southwest 422 486 38,000  Level Miami Center
06:16PM 25.9847 -81.3358 209° Southwest 422 486 38,000  Level Miami Center
06:17PM 25.8803 -81.4011 209° Southwest 427 491 38,000  Level Miami Center
06:18PM 25.7953 -81.4486 207° Southwest 427 491 38,000  Level Miami Center
06:19PM 25.6739 -81.5247 209° Southwest 427 491 38,000  Level Miami Center
06:20PM 25.5675 -81.5872 208° Southwest 427 491 38,000  Level Miami Center
06:21PM 25.4736 -81.6458 209° Southwest 427 491 38,000 -60 Level Miami Center
06:22PM 25.3586 -81.7169 209° Southwest 427 491 37,900 -540 Descending Miami Center
06:23PM 25.2564 -81.7772 208° Southwest 427 491 37,000 -1,020 Descending Miami Center
06:24PM 25.1519 -81.8394 208° Southwest 427 491 35,900 -1,080 Descending Miami Center
06:25PM 25.0497 -81.8997 208° Southwest 427 491 34,900 -960 Descending Miami Center
06:26PM 24.9475 -81.9617 209° Southwest 422 486 34,000 -960 Descending Miami Center
06:27PM 24.8450 -82.0217 208° Southwest 422 486 33,000 -1,020 Descending Miami Center
06:28PM 24.7386 -82.0833 208° Southwest 427 491 32,000 -1,080 Descending Miami Center
06:29PM 24.6361 -82.1453 209° Southwest 427 491 30,900 -1,080 Descending Miami Center
06:30PM 24.5314 -82.2094 209° Southwest 427 491 29,900 -1,020 Descending Miami Center
06:31PM 24.4208 -82.2708 207° Southwest 427 491 28,900 -1,320 Descending Miami Center
06:32PM 24.3183 -82.3322 209° Southwest 432 497 27,300 -1,680 Descending Miami Center
06:33PM 24.2158 -82.3939 209° Southwest 427 491 25,600 -1,560 Descending Miami Center
06:34PM 24.1239 -82.4467 208° Southwest 421 484 24,200 -1,500 Descending Miami Center
06:35PM 24.0300 -82.5017 208° Southwest 410 472 22,600 -1,620 Descending Miami Center
06:37PM 23.8914 -82.4893 177° South  Level Estimated
06:44PM 23.1131 -82.4029 179° South  Level FlightAware Approximate
06:45PM 23.0019 -82.4004 179° South  Level FlightAware Approximate
06:46PM 22.9891 -82.4091 180° South  Level Estimated
06:47PM 22.9891 -82.4091 180° South  Level Estimated
06:48PM 22.9891 -82.4091 180° South  Level Estimated
06:49PM 22.9891 -82.4091 180° South  Level Estimated
06:50PM 22.9891 -82.4091 180° South  Level Estimated
06:51PM 22.9891 -82.4091 180° South  Level Estimated
06:52PM 22.9891 -82.4091 180° South  Level Estimated
06:53PM 22.9891 -82.4091 180° South  Level Estimated
06:54PM 22.9891 -82.4091 180° South  Level Estimated
06:55PM 22.9891 -82.4091 180° South  Level Estimated
06:56PM 22.9891 -82.4091 180° South  Level Estimated
06:57PM 22.9891 -82.4091 180° South  Level Estimated
06:58PM 22.9891 -82.4091 180° South  Level Estimated
06:59PM 22.9891 -82.4091 180° South  Level Estimated
07:00PM 22.9891 -82.4091 180° South  Level Estimated
07:01PM 22.9891 -82.4091 180° South  Level Estimated
07:02PM 22.9891 -82.4091 180° South  Level Estimated
07:03PM 22.9891 -82.4091 180° South  Level Estimated
07:04PM 22.9891 -82.4091 180° South  Level Estimated
07:05PM 22.9891 -82.4091 180° South  Level Estimated